sensor_id;sensor_type;location;lat;lon;timestamp;P1;durP1;ratioP1;P2;durP2;ratioP2
9422;SDS011;65863;49.506;10.400;2023-07-29T00:00:10;7.53;;;3.60;;
9422;SDS011;65863;49.506;10.400;2023-07-29T00:02:58;4.07;;;3.17;;
9422;SDS011;65863;49.506;10.400;2023-07-29T00:05:42;3.37;;;3.10;;
9422;SDS011;65863;49.506;10.400;2023-07-29T00:08:26;4.60;;;3.23;;
9422;SDS011;65863;49.506;10.400;2023-07-29T00:11:10;3.33;;;3.00;;
9422;SDS011;65863;49.506;10.400;2023-07-29T00:13:54;4.80;;;2.80;;
9422;SDS011;65863;49.506;10.400;2023-07-29T00:16:38;3.40;;;3.10;;
9422;SDS011;65863;49.506;10.400;2023-07-29T00:19:22;3.70;;;3.13;;
9422;SDS011;65863;49.506;10.400;2023-07-29T00:22:07;3.03;;;2.80;;
9422;SDS011;65863;49.506;10.400;2023-07-29T00:24:52;3.17;;;2.50;;
9422;SDS011;65863;49.506;10.400;2023-07-29T00:27:40;3.10;;;2.80;;
9422;SDS011;65863;49.506;10.400;2023-07-29T00:30:25;4.60;;;3.00;;
9422;SDS011;65863;49.506;10.400;2023-07-29T00:33:09;4.03;;;3.03;;
9422;SDS011;65863;49.506;10.400;2023-07-29T00:35:53;3.70;;;2.80;;
9422;SDS011;65863;49.506;10.400;2023-07-29T00:38:37;6.10;;;2.70;;
9422;SDS011;65863;49.506;10.400;2023-07-29T00:41:21;3.87;;;2.97;;
9422;SDS011;65863;49.506;10.400;2023-07-29T00:44:06;4.43;;;2.70;;
9422;SDS011;65863;49.506;10.400;2023-07-29T00:46:50;6.20;;;3.20;;
9422;SDS011;65863;49.506;10.400;2023-07-29T00:49:38;4.87;;;3.10;;
9422;SDS011;65863;49.506;10.400;2023-07-29T00:52:22;6.57;;;3.20;;
9422;SDS011;65863;49.506;10.400;2023-07-29T00:55:06;5.77;;;3.17;;
9422;SDS011;65863;49.506;10.400;2023-07-29T00:57:51;2.93;;;2.70;;
9422;SDS011;65863;49.506;10.400;2023-07-29T01:00:38;5.13;;;3.17;;
9422;SDS011;65863;49.506;10.400;2023-07-29T01:03:22;3.33;;;3.03;;
9422;SDS011;65863;49.506;10.400;2023-07-29T01:06:15;5.40;;;2.73;;
9422;SDS011;65863;49.506;10.400;2023-07-29T01:09:02;5.53;;;2.50;;
9422;SDS011;65863;49.506;10.400;2023-07-29T01:11:55;6.40;;;2.63;;
9422;SDS011;65863;49.506;10.400;2023-07-29T01:14:59;4.23;;;2.70;;
9422;SDS011;65863;49.506;10.400;2023-07-29T01:17:54;3.77;;;3.07;;
9422;SDS011;65863;49.506;10.400;2023-07-29T01:20:43;4.23;;;3.40;;
9422;SDS011;65863;49.506;10.400;2023-07-29T01:23:31;11.73;;;3.30;;
9422;SDS011;65863;49.506;10.400;2023-07-29T01:26:17;4.67;;;2.80;;
9422;SDS011;65863;49.506;10.400;2023-07-29T01:29:01;4.30;;;2.90;;
9422;SDS011;65863;49.506;10.400;2023-07-29T01:31:45;3.97;;;3.17;;
9422;SDS011;65863;49.506;10.400;2023-07-29T01:34:36;5.97;;;2.90;;
9422;SDS011;65863;49.506;10.400;2023-07-29T01:37:37;3.33;;;2.80;;
9422;SDS011;65863;49.506;10.400;2023-07-29T01:40:23;3.57;;;3.00;;
9422;SDS011;65863;49.506;10.400;2023-07-29T01:43:10;3.30;;;2.50;;
9422;SDS011;65863;49.506;10.400;2023-07-29T01:45:56;4.00;;;2.50;;
9422;SDS011;65863;49.506;10.400;2023-07-29T01:48:40;5.27;;;2.50;;
9422;SDS011;65863;49.506;10.400;2023-07-29T01:51:24;6.80;;;2.60;;
9422;SDS011;65863;49.506;10.400;2023-07-29T01:54:08;4.23;;;3.00;;
9422;SDS011;65863;49.506;10.400;2023-07-29T01:56:54;3.40;;;3.00;;
9422;SDS011;65863;49.506;10.400;2023-07-29T01:59:38;3.43;;;2.60;;
9422;SDS011;65863;49.506;10.400;2023-07-29T02:02:22;6.27;;;3.10;;
9422;SDS011;65863;49.506;10.400;2023-07-29T02:05:06;3.57;;;2.73;;
9422;SDS011;65863;49.506;10.400;2023-07-29T02:07:50;3.67;;;2.83;;
9422;SDS011;65863;49.506;10.400;2023-07-29T02:10:34;2.90;;;2.57;;
9422;SDS011;65863;49.506;10.400;2023-07-29T02:13:18;5.50;;;2.80;;
9422;SDS011;65863;49.506;10.400;2023-07-29T02:16:02;4.37;;;4.07;;
9422;SDS011;65863;49.506;10.400;2023-07-29T02:18:47;6.63;;;3.63;;
9422;SDS011;65863;49.506;10.400;2023-07-29T02:21:31;6.20;;;4.00;;
9422;SDS011;65863;49.506;10.400;2023-07-29T02:24:15;5.10;;;4.17;;
9422;SDS011;65863;49.506;10.400;2023-07-29T02:26:59;8.17;;;3.93;;
9422;SDS011;65863;49.506;10.400;2023-07-29T02:29:43;4.40;;;3.60;;
9422;SDS011;65863;49.506;10.400;2023-07-29T02:32:27;7.43;;;4.30;;
9422;SDS011;65863;49.506;10.400;2023-07-29T02:35:12;4.47;;;4.07;;
9422;SDS011;65863;49.506;10.400;2023-07-29T02:37:56;4.93;;;4.30;;
9422;SDS011;65863;49.506;10.400;2023-07-29T02:40:40;6.00;;;4.40;;
9422;SDS011;65863;49.506;10.400;2023-07-29T02:43:25;4.83;;;3.83;;
9422;SDS011;65863;49.506;10.400;2023-07-29T02:46:09;5.17;;;4.67;;
9422;SDS011;65863;49.506;10.400;2023-07-29T02:48:53;5.53;;;3.80;;
9422;SDS011;65863;49.506;10.400;2023-07-29T02:51:37;5.57;;;3.97;;
9422;SDS011;65863;49.506;10.400;2023-07-29T02:54:21;5.07;;;3.93;;
9422;SDS011;65863;49.506;10.400;2023-07-29T02:57:05;7.73;;;3.97;;
9422;SDS011;65863;49.506;10.400;2023-07-29T02:59:49;4.70;;;3.90;;
9422;SDS011;65863;49.506;10.400;2023-07-29T03:02:33;4.23;;;3.53;;
9422;SDS011;65863;49.506;10.400;2023-07-29T03:05:18;3.47;;;3.17;;
9422;SDS011;65863;49.506;10.400;2023-07-29T03:08:02;3.70;;;3.40;;
9422;SDS011;65863;49.506;10.400;2023-07-29T03:10:46;4.17;;;3.87;;
9422;SDS011;65863;49.506;10.400;2023-07-29T03:13:30;5.30;;;4.20;;
9422;SDS011;65863;49.506;10.400;2023-07-29T03:16:15;5.87;;;4.00;;
9422;SDS011;65863;49.506;10.400;2023-07-29T03:19:05;6.00;;;3.77;;
9422;SDS011;65863;49.506;10.400;2023-07-29T03:21:50;5.17;;;3.30;;
9422;SDS011;65863;49.506;10.400;2023-07-29T03:24:34;4.50;;;4.00;;
9422;SDS011;65863;49.506;10.400;2023-07-29T03:27:18;4.40;;;3.30;;
9422;SDS011;65863;49.506;10.400;2023-07-29T03:30:05;4.33;;;3.93;;
9422;SDS011;65863;49.506;10.400;2023-07-29T03:32:50;7.10;;;3.70;;
9422;SDS011;65863;49.506;10.400;2023-07-29T03:35:34;7.23;;;4.20;;
9422;SDS011;65863;49.506;10.400;2023-07-29T03:38:18;5.87;;;4.00;;
9422;SDS011;65863;49.506;10.400;2023-07-29T03:41:03;5.10;;;4.40;;
9422;SDS011;65863;49.506;10.400;2023-07-29T03:43:47;4.67;;;4.03;;
9422;SDS011;65863;49.506;10.400;2023-07-29T03:46:31;6.40;;;4.80;;
9422;SDS011;65863;49.506;10.400;2023-07-29T03:49:15;4.53;;;4.13;;
9422;SDS011;65863;49.506;10.400;2023-07-29T03:51:59;4.50;;;4.10;;
9422;SDS011;65863;49.506;10.400;2023-07-29T03:54:42;4.23;;;3.53;;
9422;SDS011;65863;49.506;10.400;2023-07-29T03:57:26;5.03;;;3.27;;
9422;SDS011;65863;49.506;10.400;2023-07-29T04:00:10;4.63;;;3.23;;
9422;SDS011;65863;49.506;10.400;2023-07-29T04:02:59;3.80;;;3.40;;
9422;SDS011;65863;49.506;10.400;2023-07-29T04:05:43;5.20;;;3.30;;
9422;SDS011;65863;49.506;10.400;2023-07-29T04:08:27;3.57;;;3.27;;
9422;SDS011;65863;49.506;10.400;2023-07-29T04:11:11;3.60;;;3.30;;
9422;SDS011;65863;49.506;10.400;2023-07-29T04:13:56;4.00;;;3.20;;
9422;SDS011;65863;49.506;10.400;2023-07-29T04:16:40;3.80;;;3.37;;
9422;SDS011;65863;49.506;10.400;2023-07-29T04:19:24;4.37;;;3.70;;
9422;SDS011;65863;49.506;10.400;2023-07-29T04:22:08;4.37;;;3.30;;
9422;SDS011;65863;49.506;10.400;2023-07-29T04:24:52;3.50;;;3.20;;
9422;SDS011;65863;49.506;10.400;2023-07-29T04:27:36;5.30;;;3.57;;
9422;SDS011;65863;49.506;10.400;2023-07-29T04:30:20;3.93;;;3.37;;
9422;SDS011;65863;49.506;10.400;2023-07-29T04:33:04;3.47;;;2.60;;
9422;SDS011;65863;49.506;10.400;2023-07-29T04:35:49;3.50;;;2.80;;
9422;SDS011;65863;49.506;10.400;2023-07-29T04:38:33;3.20;;;2.80;;
9422;SDS011;65863;49.506;10.400;2023-07-29T04:41:17;5.27;;;2.80;;
9422;SDS011;65863;49.506;10.400;2023-07-29T04:44:01;2.97;;;2.67;;
9422;SDS011;65863;49.506;10.400;2023-07-29T04:46:45;2.57;;;2.40;;
9422;SDS011;65863;49.506;10.400;2023-07-29T04:49:30;4.03;;;3.10;;
9422;SDS011;65863;49.506;10.400;2023-07-29T04:52:14;3.90;;;2.77;;
9422;SDS011;65863;49.506;10.400;2023-07-29T04:54:58;2.53;;;2.33;;
9422;SDS011;65863;49.506;10.400;2023-07-29T04:57:42;3.90;;;2.50;;
9422;SDS011;65863;49.506;10.400;2023-07-29T05:00:27;3.83;;;3.03;;
9422;SDS011;65863;49.506;10.400;2023-07-29T05:03:11;2.70;;;2.43;;
9422;SDS011;65863;49.506;10.400;2023-07-29T05:05:55;7.53;;;2.70;;
9422;SDS011;65863;49.506;10.400;2023-07-29T05:08:41;2.37;;;2.10;;
9422;SDS011;65863;49.506;10.400;2023-07-29T05:11:25;2.90;;;2.20;;
9422;SDS011;65863;49.506;10.400;2023-07-29T05:14:09;2.07;;;1.87;;
9422;SDS011;65863;49.506;10.400;2023-07-29T05:16:53;2.30;;;1.70;;
9422;SDS011;65863;49.506;10.400;2023-07-29T05:19:37;2.53;;;1.97;;
9422;SDS011;65863;49.506;10.400;2023-07-29T05:22:21;2.00;;;1.90;;
9422;SDS011;65863;49.506;10.400;2023-07-29T05:25:05;4.33;;;2.00;;
9422;SDS011;65863;49.506;10.400;2023-07-29T05:27:50;1.87;;;1.77;;
9422;SDS011;65863;49.506;10.400;2023-07-29T05:30:34;1.90;;;1.60;;
9422;SDS011;65863;49.506;10.400;2023-07-29T05:33:21;4.27;;;1.80;;
9422;SDS011;65863;49.506;10.400;2023-07-29T05:36:06;3.57;;;1.70;;
9422;SDS011;65863;49.506;10.400;2023-07-29T05:38:51;3.57;;;1.77;;
9422;SDS011;65863;49.506;10.400;2023-07-29T05:41:36;2.47;;;1.80;;
9422;SDS011;65863;49.506;10.400;2023-07-29T05:44:19;2.53;;;1.57;;
9422;SDS011;65863;49.506;10.400;2023-07-29T05:47:04;3.23;;;1.60;;
9422;SDS011;65863;49.506;10.400;2023-07-29T05:49:48;1.70;;;1.60;;
9422;SDS011;65863;49.506;10.400;2023-07-29T05:52:32;2.07;;;1.70;;
9422;SDS011;65863;49.506;10.400;2023-07-29T05:55:17;4.33;;;1.63;;
9422;SDS011;65863;49.506;10.400;2023-07-29T05:58:01;2.23;;;1.67;;
9422;SDS011;65863;49.506;10.400;2023-07-29T06:00:45;1.57;;;1.47;;
9422;SDS011;65863;49.506;10.400;2023-07-29T06:03:29;2.00;;;1.80;;
9422;SDS011;65863;49.506;10.400;2023-07-29T06:06:13;1.83;;;1.43;;
9422;SDS011;65863;49.506;10.400;2023-07-29T06:08:57;1.50;;;1.40;;
9422;SDS011;65863;49.506;10.400;2023-07-29T06:11:42;4.80;;;1.70;;
9422;SDS011;65863;49.506;10.400;2023-07-29T06:14:26;2.67;;;1.70;;
9422;SDS011;65863;49.506;10.400;2023-07-29T06:17:10;1.77;;;1.57;;
9422;SDS011;65863;49.506;10.400;2023-07-29T06:19:55;3.30;;;1.60;;
9422;SDS011;65863;49.506;10.400;2023-07-29T06:22:39;1.70;;;1.40;;
9422;SDS011;65863;49.506;10.400;2023-07-29T06:25:23;2.07;;;1.60;;
9422;SDS011;65863;49.506;10.400;2023-07-29T06:28:07;2.60;;;1.87;;
9422;SDS011;65863;49.506;10.400;2023-07-29T06:30:52;1.57;;;1.40;;
9422;SDS011;65863;49.506;10.400;2023-07-29T06:33:36;3.47;;;1.50;;
9422;SDS011;65863;49.506;10.400;2023-07-29T06:36:20;5.83;;;1.60;;
9422;SDS011;65863;49.506;10.400;2023-07-29T06:39:04;2.07;;;1.50;;
9422;SDS011;65863;49.506;10.400;2023-07-29T06:41:49;4.23;;;1.50;;
9422;SDS011;65863;49.506;10.400;2023-07-29T06:44:35;3.30;;;1.50;;
9422;SDS011;65863;49.506;10.400;2023-07-29T06:47:19;5.57;;;1.83;;
9422;SDS011;65863;49.506;10.400;2023-07-29T06:50:03;3.60;;;1.27;;
9422;SDS011;65863;49.506;10.400;2023-07-29T06:52:47;1.40;;;1.20;;
9422;SDS011;65863;49.506;10.400;2023-07-29T06:55:31;3.87;;;1.90;;
9422;SDS011;65863;49.506;10.400;2023-07-29T06:58:15;2.13;;;1.80;;
9422;SDS011;65863;49.506;10.400;2023-07-29T07:00:59;4.10;;;1.40;;
9422;SDS011;65863;49.506;10.400;2023-07-29T07:03:43;2.47;;;1.40;;
9422;SDS011;65863;49.506;10.400;2023-07-29T07:06:27;3.53;;;1.60;;
9422;SDS011;65863;49.506;10.400;2023-07-29T07:09:12;4.23;;;1.60;;
9422;SDS011;65863;49.506;10.400;2023-07-29T07:11:56;4.80;;;1.43;;
9422;SDS011;65863;49.506;10.400;2023-07-29T07:14:40;3.70;;;1.40;;
9422;SDS011;65863;49.506;10.400;2023-07-29T07:17:36;3.53;;;1.50;;
9422;SDS011;65863;49.506;10.400;2023-07-29T07:20:20;2.40;;;1.40;;
9422;SDS011;65863;49.506;10.400;2023-07-29T07:23:04;2.87;;;1.60;;
9422;SDS011;65863;49.506;10.400;2023-07-29T07:25:55;2.70;;;1.70;;
9422;SDS011;65863;49.506;10.400;2023-07-29T07:28:39;1.47;;;1.30;;
9422;SDS011;65863;49.506;10.400;2023-07-29T07:31:23;2.67;;;1.90;;
9422;SDS011;65863;49.506;10.400;2023-07-29T07:34:07;13.13;;;4.10;;
9422;SDS011;65863;49.506;10.400;2023-07-29T07:36:51;2.00;;;1.50;;
9422;SDS011;65863;49.506;10.400;2023-07-29T07:39:36;2.67;;;1.40;;
9422;SDS011;65863;49.506;10.400;2023-07-29T07:42:20;1.60;;;1.50;;
9422;SDS011;65863;49.506;10.400;2023-07-29T07:45:04;1.70;;;1.60;;
9422;SDS011;65863;49.506;10.400;2023-07-29T07:47:48;1.50;;;1.40;;
9422;SDS011;65863;49.506;10.400;2023-07-29T07:50:32;1.50;;;1.40;;
9422;SDS011;65863;49.506;10.400;2023-07-29T07:53:16;1.87;;;1.30;;
9422;SDS011;65863;49.506;10.400;2023-07-29T07:56:01;3.70;;;1.33;;
9422;SDS011;65863;49.506;10.400;2023-07-29T07:58:45;1.33;;;1.23;;
9422;SDS011;65863;49.506;10.400;2023-07-29T08:01:35;1.67;;;1.20;;
9422;SDS011;65863;49.506;10.400;2023-07-29T08:04:20;1.40;;;1.27;;
9422;SDS011;65863;49.506;10.400;2023-07-29T08:07:05;1.77;;;1.37;;
9422;SDS011;65863;49.506;10.400;2023-07-29T08:09:51;3.13;;;1.40;;
9422;SDS011;65863;49.506;10.400;2023-07-29T08:12:41;1.93;;;1.37;;
9422;SDS011;65863;49.506;10.400;2023-07-29T08:15:25;1.77;;;1.33;;
9422;SDS011;65863;49.506;10.400;2023-07-29T08:18:09;1.30;;;1.20;;
9422;SDS011;65863;49.506;10.400;2023-07-29T08:20:54;1.57;;;1.40;;
9422;SDS011;65863;49.506;10.400;2023-07-29T08:23:41;1.10;;;1.10;;
9422;SDS011;65863;49.506;10.400;2023-07-29T08:26:26;4.60;;;1.50;;
9422;SDS011;65863;49.506;10.400;2023-07-29T08:29:11;1.67;;;1.50;;
9422;SDS011;65863;49.506;10.400;2023-07-29T08:31:57;1.87;;;1.50;;
9422;SDS011;65863;49.506;10.400;2023-07-29T08:34:45;2.10;;;1.30;;
9422;SDS011;65863;49.506;10.400;2023-07-29T08:37:40;1.53;;;1.30;;
9422;SDS011;65863;49.506;10.400;2023-07-29T08:40:25;1.40;;;1.30;;
9422;SDS011;65863;49.506;10.400;2023-07-29T08:43:29;1.13;;;1.13;;
9422;SDS011;65863;49.506;10.400;2023-07-29T08:46:19;3.07;;;1.50;;
9422;SDS011;65863;49.506;10.400;2023-07-29T08:49:18;1.40;;;1.30;;
9422;SDS011;65863;49.506;10.400;2023-07-29T08:52:05;1.40;;;1.30;;
9422;SDS011;65863;49.506;10.400;2023-07-29T08:54:50;1.53;;;1.17;;
9422;SDS011;65863;49.506;10.400;2023-07-29T08:57:37;1.50;;;1.40;;
9422;SDS011;65863;49.506;10.400;2023-07-29T09:00:21;1.30;;;1.20;;
9422;SDS011;65863;49.506;10.400;2023-07-29T09:03:06;1.57;;;1.30;;
9422;SDS011;65863;49.506;10.400;2023-07-29T09:05:51;4.00;;;1.40;;
9422;SDS011;65863;49.506;10.400;2023-07-29T09:08:36;1.37;;;1.27;;
9422;SDS011;65863;49.506;10.400;2023-07-29T09:11:21;1.37;;;1.27;;
9422;SDS011;65863;49.506;10.400;2023-07-29T09:14:05;2.33;;;1.10;;
9422;SDS011;65863;49.506;10.400;2023-07-29T09:16:49;1.53;;;1.23;;
9422;SDS011;65863;49.506;10.400;2023-07-29T09:19:34;3.03;;;1.40;;
9422;SDS011;65863;49.506;10.400;2023-07-29T09:22:18;1.50;;;1.20;;
9422;SDS011;65863;49.506;10.400;2023-07-29T09:25:03;2.97;;;1.50;;
9422;SDS011;65863;49.506;10.400;2023-07-29T09:27:48;2.03;;;1.60;;
9422;SDS011;65863;49.506;10.400;2023-07-29T09:30:31;2.90;;;1.43;;
9422;SDS011;65863;49.506;10.400;2023-07-29T09:33:16;1.40;;;1.30;;
9422;SDS011;65863;49.506;10.400;2023-07-29T09:36:09;2.17;;;1.50;;
9422;SDS011;65863;49.506;10.400;2023-07-29T09:38:54;2.37;;;1.40;;
9422;SDS011;65863;49.506;10.400;2023-07-29T09:41:39;4.17;;;1.50;;
9422;SDS011;65863;49.506;10.400;2023-07-29T09:44:23;2.40;;;1.60;;
9422;SDS011;65863;49.506;10.400;2023-07-29T09:47:07;2.37;;;1.43;;
9422;SDS011;65863;49.506;10.400;2023-07-29T09:49:51;3.93;;;1.40;;
9422;SDS011;65863;49.506;10.400;2023-07-29T09:52:36;2.73;;;1.60;;
9422;SDS011;65863;49.506;10.400;2023-07-29T09:55:23;2.13;;;1.27;;
9422;SDS011;65863;49.506;10.400;2023-07-29T09:58:08;1.60;;;1.30;;
9422;SDS011;65863;49.506;10.400;2023-07-29T10:00:52;2.70;;;1.30;;
9422;SDS011;65863;49.506;10.400;2023-07-29T10:03:36;2.33;;;1.40;;
9422;SDS011;65863;49.506;10.400;2023-07-29T10:06:21;3.57;;;1.47;;
9422;SDS011;65863;49.506;10.400;2023-07-29T10:09:06;1.30;;;1.20;;
9422;SDS011;65863;49.506;10.400;2023-07-29T10:11:51;2.40;;;1.30;;
9422;SDS011;65863;49.506;10.400;2023-07-29T10:14:37;1.67;;;1.40;;
9422;SDS011;65863;49.506;10.400;2023-07-29T10:17:21;4.03;;;1.40;;
9422;SDS011;65863;49.506;10.400;2023-07-29T10:20:08;1.47;;;1.33;;
9422;SDS011;65863;49.506;10.400;2023-07-29T10:22:53;1.47;;;1.30;;
9422;SDS011;65863;49.506;10.400;2023-07-29T10:25:41;1.97;;;1.27;;
9422;SDS011;65863;49.506;10.400;2023-07-29T10:28:30;1.17;;;1.17;;
9422;SDS011;65863;49.506;10.400;2023-07-29T10:31:16;1.43;;;1.20;;
9422;SDS011;65863;49.506;10.400;2023-07-29T10:34:01;2.60;;;1.37;;
9422;SDS011;65863;49.506;10.400;2023-07-29T10:36:45;1.40;;;1.30;;
9422;SDS011;65863;49.506;10.400;2023-07-29T10:39:37;4.03;;;1.40;;
9422;SDS011;65863;49.506;10.400;2023-07-29T10:42:23;5.30;;;1.50;;
9422;SDS011;65863;49.506;10.400;2023-07-29T10:45:17;4.50;;;1.27;;
9422;SDS011;65863;49.506;10.400;2023-07-29T10:51:29;2.53;;;1.40;;
9422;SDS011;65863;49.506;10.400;2023-07-29T10:54:21;2.00;;;1.40;;
9422;SDS011;65863;49.506;10.400;2023-07-29T10:57:05;1.50;;;1.30;;
9422;SDS011;65863;49.506;10.400;2023-07-29T10:59:56;1.40;;;1.30;;
9422;SDS011;65863;49.506;10.400;2023-07-29T11:02:41;4.20;;;1.47;;
9422;SDS011;65863;49.506;10.400;2023-07-29T11:05:25;1.50;;;1.20;;
9422;SDS011;65863;49.506;10.400;2023-07-29T11:11:13;2.07;;;1.20;;
9422;SDS011;65863;49.506;10.400;2023-07-29T11:13:57;1.13;;;1.13;;
9422;SDS011;65863;49.506;10.400;2023-07-29T11:16:43;2.27;;;1.13;;
9422;SDS011;65863;49.506;10.400;2023-07-29T11:19:27;3.57;;;1.43;;
9422;SDS011;65863;49.506;10.400;2023-07-29T11:22:12;1.40;;;1.10;;
9422;SDS011;65863;49.506;10.400;2023-07-29T11:24:56;1.77;;;1.00;;
9422;SDS011;65863;49.506;10.400;2023-07-29T11:27:40;1.77;;;1.10;;
9422;SDS011;65863;49.506;10.400;2023-07-29T11:30:25;1.90;;;1.37;;
9422;SDS011;65863;49.506;10.400;2023-07-29T11:33:13;1.40;;;1.10;;
9422;SDS011;65863;49.506;10.400;2023-07-29T11:35:57;2.77;;;1.30;;
9422;SDS011;65863;49.506;10.400;2023-07-29T11:38:41;1.37;;;1.27;;
9422;SDS011;65863;49.506;10.400;2023-07-29T11:41:25;1.50;;;1.40;;
9422;SDS011;65863;49.506;10.400;2023-07-29T11:44:09;1.43;;;1.33;;
9422;SDS011;65863;49.506;10.400;2023-07-29T11:47:00;1.27;;;1.17;;
9422;SDS011;65863;49.506;10.400;2023-07-29T11:49:44;1.27;;;1.17;;
9422;SDS011;65863;49.506;10.400;2023-07-29T11:52:28;1.70;;;1.20;;
9422;SDS011;65863;49.506;10.400;2023-07-29T11:55:13;1.40;;;1.10;;
9422;SDS011;65863;49.506;10.400;2023-07-29T11:57:58;1.53;;;1.20;;
9422;SDS011;65863;49.506;10.400;2023-07-29T12:00:42;2.57;;;1.20;;
9422;SDS011;65863;49.506;10.400;2023-07-29T12:03:27;2.33;;;1.30;;
9422;SDS011;65863;49.506;10.400;2023-07-29T12:06:11;4.90;;;1.20;;
9422;SDS011;65863;49.506;10.400;2023-07-29T12:08:55;2.80;;;1.23;;
9422;SDS011;65863;49.506;10.400;2023-07-29T12:11:39;1.20;;;1.20;;
9422;SDS011;65863;49.506;10.400;2023-07-29T12:14:27;1.67;;;1.13;;
9422;SDS011;65863;49.506;10.400;2023-07-29T12:17:12;2.10;;;1.30;;
9422;SDS011;65863;49.506;10.400;2023-07-29T12:19:57;3.53;;;1.67;;
9422;SDS011;65863;49.506;10.400;2023-07-29T12:22:42;1.10;;;1.10;;
9422;SDS011;65863;49.506;10.400;2023-07-29T12:25:26;3.17;;;1.07;;
9422;SDS011;65863;49.506;10.400;2023-07-29T12:28:11;1.20;;;1.17;;
9422;SDS011;65863;49.506;10.400;2023-07-29T12:30:55;2.23;;;1.20;;
9422;SDS011;65863;49.506;10.400;2023-07-29T12:33:40;2.20;;;1.30;;
9422;SDS011;65863;49.506;10.400;2023-07-29T12:36:41;1.20;;;1.10;;
9422;SDS011;65863;49.506;10.400;2023-07-29T12:39:30;2.37;;;1.43;;
9422;SDS011;65863;49.506;10.400;2023-07-29T12:42:16;1.03;;;1.00;;
9422;SDS011;65863;49.506;10.400;2023-07-29T12:45:00;1.53;;;1.33;;
9422;SDS011;65863;49.506;10.400;2023-07-29T12:47:44;2.57;;;1.20;;
9422;SDS011;65863;49.506;10.400;2023-07-29T12:50:28;1.07;;;1.07;;
9422;SDS011;65863;49.506;10.400;2023-07-29T12:53:13;4.07;;;1.30;;
9422;SDS011;65863;49.506;10.400;2023-07-29T12:55:57;3.37;;;1.50;;
9422;SDS011;65863;49.506;10.400;2023-07-29T12:58:41;1.53;;;1.33;;
9422;SDS011;65863;49.506;10.400;2023-07-29T13:01:25;1.97;;;1.10;;
9422;SDS011;65863;49.506;10.400;2023-07-29T13:04:10;1.00;;;1.00;;
9422;SDS011;65863;49.506;10.400;2023-07-29T13:06:55;2.10;;;1.00;;
9422;SDS011;65863;49.506;10.400;2023-07-29T13:09:39;1.03;;;0.90;;
9422;SDS011;65863;49.506;10.400;2023-07-29T13:12:23;2.20;;;0.97;;
9422;SDS011;65863;49.506;10.400;2023-07-29T13:15:08;0.97;;;0.97;;
9422;SDS011;65863;49.506;10.400;2023-07-29T13:17:51;1.20;;;1.10;;
9422;SDS011;65863;49.506;10.400;2023-07-29T13:20:35;1.13;;;1.03;;
9422;SDS011;65863;49.506;10.400;2023-07-29T13:23:20;1.10;;;1.00;;
9422;SDS011;65863;49.506;10.400;2023-07-29T13:26:05;1.23;;;1.00;;
9422;SDS011;65863;49.506;10.400;2023-07-29T13:28:48;1.13;;;1.03;;
9422;SDS011;65863;49.506;10.400;2023-07-29T13:31:32;2.30;;;1.07;;
9422;SDS011;65863;49.506;10.400;2023-07-29T13:34:16;1.13;;;1.00;;
9422;SDS011;65863;49.506;10.400;2023-07-29T13:37:00;2.70;;;1.30;;
9422;SDS011;65863;49.506;10.400;2023-07-29T13:39:45;1.57;;;1.30;;
9422;SDS011;65863;49.506;10.400;2023-07-29T13:42:29;3.60;;;1.30;;
9422;SDS011;65863;49.506;10.400;2023-07-29T13:45:13;0.90;;;0.90;;
9422;SDS011;65863;49.506;10.400;2023-07-29T13:47:57;2.10;;;1.10;;
9422;SDS011;65863;49.506;10.400;2023-07-29T13:50:41;1.67;;;1.10;;
9422;SDS011;65863;49.506;10.400;2023-07-29T13:53:26;1.13;;;1.00;;
9422;SDS011;65863;49.506;10.400;2023-07-29T13:56:10;1.07;;;1.03;;
9422;SDS011;65863;49.506;10.400;2023-07-29T13:59:08;1.10;;;1.00;;
9422;SDS011;65863;49.506;10.400;2023-07-29T14:01:51;0.80;;;0.80;;
9422;SDS011;65863;49.506;10.400;2023-07-29T14:04:35;1.90;;;1.00;;
9422;SDS011;65863;49.506;10.400;2023-07-29T14:07:19;1.60;;;1.00;;
9422;SDS011;65863;49.506;10.400;2023-07-29T14:10:03;2.20;;;1.10;;
9422;SDS011;65863;49.506;10.400;2023-07-29T14:12:48;2.47;;;1.13;;
9422;SDS011;65863;49.506;10.400;2023-07-29T14:15:32;2.10;;;1.00;;
9422;SDS011;65863;49.506;10.400;2023-07-29T14:18:16;2.40;;;1.20;;
9422;SDS011;65863;49.506;10.400;2023-07-29T14:21:00;1.00;;;1.00;;
9422;SDS011;65863;49.506;10.400;2023-07-29T14:23:44;2.93;;;1.00;;
9422;SDS011;65863;49.506;10.400;2023-07-29T14:26:28;1.87;;;1.40;;
9422;SDS011;65863;49.506;10.400;2023-07-29T14:29:12;1.20;;;1.10;;
9422;SDS011;65863;49.506;10.400;2023-07-29T14:31:56;3.00;;;1.30;;
9422;SDS011;65863;49.506;10.400;2023-07-29T14:34:41;3.20;;;1.23;;
9422;SDS011;65863;49.506;10.400;2023-07-29T14:37:25;1.67;;;1.10;;
9422;SDS011;65863;49.506;10.400;2023-07-29T14:40:09;1.23;;;1.13;;
9422;SDS011;65863;49.506;10.400;2023-07-29T14:42:53;1.63;;;1.33;;
9422;SDS011;65863;49.506;10.400;2023-07-29T14:45:38;1.37;;;1.27;;
9422;SDS011;65863;49.506;10.400;2023-07-29T14:48:22;4.50;;;1.40;;
9422;SDS011;65863;49.506;10.400;2023-07-29T14:51:07;1.63;;;1.17;;
9422;SDS011;65863;49.506;10.400;2023-07-29T14:53:51;2.83;;;1.27;;
9422;SDS011;65863;49.506;10.400;2023-07-29T14:56:35;1.10;;;1.10;;
9422;SDS011;65863;49.506;10.400;2023-07-29T14:59:19;2.13;;;1.50;;
9422;SDS011;65863;49.506;10.400;2023-07-29T15:02:04;1.30;;;1.10;;
9422;SDS011;65863;49.506;10.400;2023-07-29T15:04:48;2.80;;;1.20;;
9422;SDS011;65863;49.506;10.400;2023-07-29T15:07:32;2.77;;;1.60;;
9422;SDS011;65863;49.506;10.400;2023-07-29T15:10:16;2.00;;;1.20;;
9422;SDS011;65863;49.506;10.400;2023-07-29T15:13:01;1.33;;;1.10;;
9422;SDS011;65863;49.506;10.400;2023-07-29T15:15:46;3.83;;;1.10;;
9422;SDS011;65863;49.506;10.400;2023-07-29T15:18:31;4.50;;;1.80;;
9422;SDS011;65863;49.506;10.400;2023-07-29T15:21:17;1.77;;;1.50;;
9422;SDS011;65863;49.506;10.400;2023-07-29T15:24:01;1.20;;;1.10;;
9422;SDS011;65863;49.506;10.400;2023-07-29T15:26:45;2.73;;;1.27;;
9422;SDS011;65863;49.506;10.400;2023-07-29T15:29:29;1.40;;;1.30;;
9422;SDS011;65863;49.506;10.400;2023-07-29T15:32:16;1.30;;;1.20;;
9422;SDS011;65863;49.506;10.400;2023-07-29T15:35:00;1.20;;;1.20;;
9422;SDS011;65863;49.506;10.400;2023-07-29T15:37:44;1.50;;;1.40;;
9422;SDS011;65863;49.506;10.400;2023-07-29T15:40:30;1.20;;;1.10;;
9422;SDS011;65863;49.506;10.400;2023-07-29T15:43:14;1.70;;;1.30;;
9422;SDS011;65863;49.506;10.400;2023-07-29T15:45:58;1.30;;;1.20;;
9422;SDS011;65863;49.506;10.400;2023-07-29T15:48:42;1.50;;;1.40;;
9422;SDS011;65863;49.506;10.400;2023-07-29T15:51:26;3.73;;;1.60;;
9422;SDS011;65863;49.506;10.400;2023-07-29T15:54:10;1.40;;;1.30;;
9422;SDS011;65863;49.506;10.400;2023-07-29T15:56:55;6.10;;;1.40;;
9422;SDS011;65863;49.506;10.400;2023-07-29T15:59:38;1.60;;;1.50;;
9422;SDS011;65863;49.506;10.400;2023-07-29T16:02:22;1.40;;;1.30;;
9422;SDS011;65863;49.506;10.400;2023-07-29T16:05:13;1.20;;;1.17;;
9422;SDS011;65863;49.506;10.400;2023-07-29T16:07:57;1.73;;;1.27;;
9422;SDS011;65863;49.506;10.400;2023-07-29T16:10:41;1.77;;;1.27;;
9422;SDS011;65863;49.506;10.400;2023-07-29T16:13:25;1.40;;;1.20;;
9422;SDS011;65863;49.506;10.400;2023-07-29T16:16:09;1.40;;;1.30;;
9422;SDS011;65863;49.506;10.400;2023-07-29T16:18:53;1.77;;;1.33;;
9422;SDS011;65863;49.506;10.400;2023-07-29T16:21:37;2.87;;;1.30;;
9422;SDS011;65863;49.506;10.400;2023-07-29T16:24:21;1.60;;;1.50;;
9422;SDS011;65863;49.506;10.400;2023-07-29T16:27:06;1.37;;;1.27;;
9422;SDS011;65863;49.506;10.400;2023-07-29T16:29:49;1.73;;;1.30;;
9422;SDS011;65863;49.506;10.400;2023-07-29T16:32:33;1.60;;;1.50;;
9422;SDS011;65863;49.506;10.400;2023-07-29T16:35:17;1.40;;;1.30;;
9422;SDS011;65863;49.506;10.400;2023-07-29T16:38:01;1.40;;;1.30;;
9422;SDS011;65863;49.506;10.400;2023-07-29T16:40:46;1.40;;;1.30;;